createdAt,value
2023-01-28T00:01:49.917Z,73.85
2023-01-28T00:04:18.458Z,71.85
2023-01-28T00:06:46.634Z,67.13
2023-01-28T00:09:14.314Z,67.00
2023-01-28T00:11:42.709Z,65.28
2023-01-28T00:14:12.574Z,68.63
2023-01-28T00:16:40.554Z,69.07
2023-01-28T00:19:08.461Z,67.47
2023-01-28T00:21:36.728Z,65.65
2023-01-28T00:24:07.046Z,70.63
2023-01-28T00:26:35.471Z,64.57
2023-01-28T00:29:03.704Z,66.40
2023-01-28T00:31:31.807Z,75.70
2023-01-28T00:34:01.593Z,67.25
2023-01-28T00:36:29.567Z,66.65
2023-01-28T00:38:59.611Z,66.97
2023-01-28T00:41:30.084Z,65.00
2023-01-28T00:43:59.684Z,64.72
2023-01-28T00:46:28.008Z,63.25
2023-01-28T00:48:55.849Z,63.38
2023-01-28T00:51:23.875Z,68.80
2023-01-28T00:53:51.654Z,61.90
2023-01-28T00:56:19.886Z,64.50
2023-01-28T00:58:48.408Z,62.92
2023-01-28T01:01:19.452Z,58.40
2023-01-28T01:03:48.029Z,60.40
2023-01-28T01:06:16.928Z,62.03
2023-01-28T01:08:50.197Z,63.25
2023-01-28T01:11:19.485Z,60.78
2023-01-28T01:13:55.287Z,63.78
2023-01-28T01:16:28.587Z,63.45
2023-01-28T01:18:57.283Z,56.88
2023-01-28T01:21:28.015Z,60.20
2023-01-28T01:23:56.470Z,67.28
2023-01-28T01:26:27.384Z,61.30
2023-01-28T01:28:55.356Z,60.75
2023-01-28T01:31:23.570Z,61.72
2023-01-28T01:33:52.694Z,63.97
2023-01-28T01:36:22.134Z,60.15
2023-01-28T01:38:55.338Z,58.53
2023-01-28T01:41:33.632Z,61.10
2023-01-28T01:44:03.756Z,60.92
2023-01-28T01:46:36.167Z,61.85
2023-01-28T01:49:11.716Z,63.25
2023-01-28T01:51:40.816Z,61.70
2023-01-28T01:54:09.170Z,57.95
2023-01-28T01:56:42.503Z,69.00
2023-01-28T01:59:14.175Z,61.53
2023-01-28T02:01:45.873Z,63.38
2023-01-28T02:04:29.672Z,64.75
2023-01-28T02:09:29.703Z,59.42
2023-01-28T02:12:02.880Z,64.35
2023-01-28T02:14:33.476Z,67.32
2023-01-28T02:17:02.456Z,59.72
2023-01-28T02:19:55.226Z,62.13
2023-01-28T02:22:58.164Z,59.63
2023-01-28T02:25:55.555Z,61.97
2023-01-28T02:28:59.121Z,59.80
2023-01-28T02:31:51.537Z,62.42
2023-01-28T02:34:22.549Z,62.78
2023-01-28T02:37:09.127Z,65.25
2023-01-28T02:39:49.650Z,61.88
2023-01-28T02:42:31.920Z,67.90
2023-01-28T02:45:00.126Z,63.33
2023-01-28T02:47:46.505Z,63.67
2023-01-28T02:50:20.018Z,62.28
2023-01-28T02:53:15.218Z,65.38
2023-01-28T02:55:51.878Z,67.30
2023-01-28T02:58:48.443Z,63.63
2023-01-28T03:01:19.551Z,69.43
2023-01-28T03:04:08.128Z,61.67
2023-01-28T03:06:41.837Z,66.35
2023-01-28T03:09:26.900Z,61.38
2023-01-28T03:12:31.572Z,59.38
2023-01-28T03:15:29.997Z,56.67
2023-01-28T03:18:55.804Z,58.08
2023-01-28T03:21:53.932Z,59.83
2023-01-28T03:24:49.665Z,57.75
2023-01-28T03:27:53.188Z,57.08
2023-01-28T03:30:53.839Z,56.20
2023-01-28T03:33:52.545Z,50.97
2023-01-28T03:36:39.469Z,52.53
2023-01-28T03:39:11.241Z,47.80
2023-01-28T03:41:40.458Z,51.42
2023-01-28T03:44:26.668Z,48.13
2023-01-28T03:46:54.843Z,50.20
2023-01-28T03:49:22.767Z,44.67
2023-01-28T03:51:50.878Z,46.92
2023-01-28T03:54:18.706Z,44.30
2023-01-28T03:56:48.583Z,43.13
2023-01-28T03:59:17.931Z,43.47
2023-01-28T04:01:46.078Z,40.67
2023-01-28T04:04:23.026Z,47.95
2023-01-28T04:07:00.317Z,44.90
2023-01-28T04:09:48.340Z,42.72
2023-01-28T04:12:27.693Z,43.72
2023-01-28T04:14:56.145Z,41.25
2023-01-28T04:17:29.130Z,42.03
2023-01-28T04:19:57.950Z,39.15
2023-01-28T04:22:26.926Z,41.78
2023-01-28T04:24:54.748Z,37.03
2023-01-28T04:27:22.708Z,38.92
2023-01-28T04:29:51.374Z,37.33
2023-01-28T04:32:47.337Z,41.22
2023-01-28T04:35:33.548Z,36.63
2023-01-28T04:38:08.737Z,34.88
2023-01-28T04:40:49.272Z,39.58
2023-01-28T04:43:26.385Z,41.92
2023-01-28T04:46:16.889Z,38.10
2023-01-28T04:49:04.625Z,37.30
2023-01-28T04:52:01.831Z,34.92
2023-01-28T04:54:41.500Z,42.85
2023-01-28T04:57:09.729Z,36.92
2023-01-28T04:59:37.724Z,38.55
2023-01-28T05:02:06.069Z,36.50
2023-01-28T05:04:34.227Z,35.78
2023-01-28T05:07:02.447Z,35.42
2023-01-28T05:09:33.917Z,39.45
2023-01-28T05:12:01.744Z,38.92
2023-01-28T05:14:32.561Z,36.58
2023-01-28T05:17:05.967Z,39.72
2023-01-28T05:19:34.113Z,38.75
2023-01-28T05:22:03.461Z,37.97
2023-01-28T05:24:54.105Z,37.00
2023-01-28T05:27:22.151Z,38.53
2023-01-28T05:29:50.045Z,35.90
2023-01-28T05:32:17.731Z,35.45
2023-01-28T05:34:46.278Z,36.88
2023-01-28T05:37:15.266Z,37.47
2023-01-28T05:39:43.278Z,38.78
2023-01-28T05:42:11.533Z,37.60
2023-01-28T05:44:45.381Z,40.17
2023-01-28T05:47:19.299Z,40.90
2023-01-28T05:52:40.903Z,41.85
2023-01-28T05:55:15.863Z,41.88
2023-01-28T05:57:44.604Z,38.85
2023-01-28T06:00:16.315Z,36.53
2023-01-28T06:02:45.361Z,36.03
2023-01-28T06:05:16.261Z,38.80
2023-01-28T06:07:48.448Z,39.17
2023-01-28T06:10:20.069Z,42.08
2023-01-28T06:12:48.623Z,39.33
2023-01-28T06:15:37.083Z,38.28
2023-01-28T06:18:23.001Z,42.22
2023-01-28T06:20:52.416Z,43.13
2023-01-28T06:23:20.356Z,39.05
2023-01-28T06:25:48.507Z,43.40
2023-01-28T06:28:16.907Z,43.33
2023-01-28T06:30:48.024Z,50.47
2023-01-28T06:33:15.802Z,52.33
2023-01-28T06:35:44.028Z,53.20
2023-01-28T06:38:12.809Z,59.60
2023-01-28T06:40:40.796Z,60.45
2023-01-28T06:43:08.542Z,58.75
2023-01-28T06:45:36.457Z,62.10
2023-01-28T06:48:05.635Z,61.70
2023-01-28T06:50:34.602Z,57.67
2023-01-28T06:53:02.208Z,55.60
2023-01-28T06:55:30.147Z,61.72
2023-01-28T06:57:57.908Z,68.00
2023-01-28T07:00:26.029Z,66.85
2023-01-28T07:02:57.306Z,62.70
2023-01-28T07:05:25.968Z,55.80
2023-01-28T07:07:53.718Z,52.25
2023-01-28T07:10:21.719Z,56.72
2023-01-28T07:12:49.475Z,58.63
2023-01-28T07:15:17.483Z,59.08
2023-01-28T07:17:45.680Z,55.67
2023-01-28T07:20:15.631Z,58.05
2023-01-28T07:22:44.657Z,59.38
2023-01-28T07:25:14.238Z,54.25
2023-01-28T07:27:48.013Z,46.92
2023-01-28T07:30:17.034Z,50.40
2023-01-28T07:32:45.845Z,51.25
2023-01-28T07:35:14.281Z,43.65
2023-01-28T07:37:41.964Z,45.65
2023-01-28T07:40:10.764Z,46.15
2023-01-28T07:42:39.276Z,40.38
2023-01-28T07:45:08.264Z,41.47
2023-01-28T07:47:37.059Z,40.58
2023-01-28T07:50:05.552Z,44.33
2023-01-28T07:52:38.850Z,38.30
2023-01-28T07:55:07.129Z,45.75
2023-01-28T07:57:34.856Z,44.25
2023-01-28T08:00:03.093Z,45.53
2023-01-28T08:02:39.718Z,45.70
2023-01-28T08:05:08.307Z,50.70
2023-01-28T08:07:36.190Z,50.28
2023-01-28T08:10:04.448Z,55.65
2023-01-28T08:12:32.099Z,57.97
2023-01-28T08:15:00.137Z,48.97
2023-01-28T08:17:28.583Z,49.85
2023-01-28T08:19:56.565Z,50.63
2023-01-28T08:22:28.348Z,46.67
2023-01-28T08:24:56.516Z,49.95
2023-01-28T08:27:24.257Z,43.10
2023-01-28T08:29:52.292Z,41.95
2023-01-28T08:32:19.957Z,41.60
2023-01-28T08:34:48.044Z,38.33
2023-01-28T08:37:15.766Z,39.75
2023-01-28T08:39:45.582Z,39.55
2023-01-28T08:42:14.106Z,38.42
2023-01-28T08:44:42.048Z,39.22
2023-01-28T08:47:09.720Z,33.65
2023-01-28T08:49:37.637Z,42.03
2023-01-28T08:52:05.463Z,36.53
2023-01-28T08:54:33.955Z,37.90
2023-01-28T08:57:01.654Z,38.70
2023-01-28T08:59:29.673Z,44.08
2023-01-28T09:01:57.398Z,42.80
2023-01-28T09:04:25.360Z,44.35
2023-01-28T09:06:54.128Z,44.15
2023-01-28T09:09:22.352Z,44.70
2023-01-28T09:11:49.981Z,41.75
2023-01-28T09:14:17.965Z,42.85
2023-01-28T09:16:45.682Z,48.88
2023-01-28T09:19:15.015Z,52.10
2023-01-28T09:21:43.405Z,42.90
2023-01-28T09:24:12.350Z,48.03
2023-01-28T09:26:40.022Z,45.55
2023-01-28T09:29:07.934Z,41.60
2023-01-28T09:31:35.730Z,39.95
2023-01-28T09:34:04.214Z,42.85
2023-01-28T09:36:32.704Z,42.90
2023-01-28T09:39:01.751Z,43.03
2023-01-28T09:41:42.676Z,44.85
2023-01-28T09:44:32.589Z,43.78
2023-01-28T09:47:08.866Z,45.20
2023-01-28T09:49:48.743Z,44.42
2023-01-28T09:52:19.414Z,42.63
2023-01-28T09:54:50.662Z,44.35
2023-01-28T09:57:26.154Z,36.45
2023-01-28T09:59:54.097Z,43.13
2023-01-28T10:02:36.736Z,33.75
2023-01-28T10:05:17.089Z,36.85
2023-01-28T10:07:52.299Z,40.88
2023-01-28T10:10:29.158Z,37.55
2023-01-28T10:13:30.881Z,36.65
2023-01-28T10:16:20.656Z,38.03
2023-01-28T10:19:11.264Z,34.78
2023-01-28T10:21:50.536Z,31.85
2023-01-28T10:24:44.430Z,35.50
2023-01-28T10:27:19.941Z,35.22
2023-01-28T10:29:50.147Z,35.33
2023-01-28T10:32:29.217Z,38.00
2023-01-28T10:34:59.824Z,39.55
2023-01-28T10:37:29.416Z,37.13
2023-01-28T10:40:00.324Z,38.28
2023-01-28T10:42:36.340Z,34.03
2023-01-28T10:45:14.843Z,36.38
2023-01-28T10:47:51.887Z,34.83
2023-01-28T10:50:24.672Z,35.20
2023-01-28T10:52:55.486Z,34.03
2023-01-28T10:55:27.367Z,34.72
2023-01-28T10:57:55.913Z,36.55
2023-01-28T11:00:37.453Z,30.10
2023-01-28T11:03:06.193Z,29.98
2023-01-28T11:05:34.008Z,33.92
2023-01-28T11:08:19.365Z,31.77
2023-01-28T11:13:24.909Z,32.13
2023-01-28T11:15:53.697Z,35.03
2023-01-28T11:18:24.934Z,33.63
2023-01-28T11:21:00.359Z,32.35
2023-01-28T11:23:41.728Z,31.83
2023-01-28T11:26:21.446Z,36.45
2023-01-28T11:28:50.307Z,35.13
2023-01-28T11:31:20.518Z,31.63
2023-01-28T11:34:00.564Z,35.13
2023-01-28T11:36:33.800Z,35.50
2023-01-28T11:39:28.649Z,33.77
2023-01-28T11:42:17.700Z,31.60
2023-01-28T11:44:49.440Z,29.30
2023-01-28T11:47:32.563Z,30.52
2023-01-28T11:50:21.020Z,29.58
2023-01-28T11:53:07.769Z,26.33
2023-01-28T11:56:09.522Z,27.10
2023-01-28T11:58:49.317Z,29.30
2023-01-28T12:01:36.228Z,30.73
2023-01-28T12:04:22.970Z,28.10
2023-01-28T12:07:24.894Z,27.60
2023-01-28T12:09:58.336Z,29.95
2023-01-28T12:13:04.285Z,29.63
2023-01-28T12:15:41.358Z,24.70
2023-01-28T12:18:19.049Z,26.02
2023-01-28T12:20:59.326Z,26.95
2023-01-28T12:23:42.148Z,29.58
2023-01-28T12:26:13.385Z,26.73
2023-01-28T12:28:41.058Z,28.85
2023-01-28T12:31:52.843Z,31.00
2023-01-28T12:34:41.731Z,29.05
2023-01-28T12:37:25.562Z,30.15
2023-01-28T12:40:26.601Z,28.05
2023-01-28T12:43:10.527Z,34.65
2023-01-28T12:45:42.565Z,33.00
2023-01-28T12:48:45.469Z,36.50
2023-01-28T12:51:17.747Z,35.70
2023-01-28T12:53:54.650Z,34.53
2023-01-28T12:56:29.908Z,37.85
2023-01-28T12:59:35.794Z,32.75
2023-01-28T13:02:18.622Z,35.30
2023-01-28T13:05:09.228Z,34.15
2023-01-28T13:07:59.288Z,38.42
2023-01-28T13:10:38.648Z,33.97
2023-01-28T13:13:07.732Z,34.97
2023-01-28T13:15:39.891Z,39.50
2023-01-28T13:18:07.893Z,33.08
2023-01-28T13:20:36.680Z,37.88
2023-01-28T13:23:20.926Z,37.67
2023-01-28T13:25:51.531Z,38.88
2023-01-28T13:28:32.863Z,37.05
2023-01-28T13:31:08.756Z,35.63
2023-01-28T13:33:40.077Z,39.80
2023-01-28T13:36:41.893Z,38.83
2023-01-28T13:39:21.198Z,40.28
2023-01-28T13:41:52.349Z,40.95
2023-01-28T13:44:26.270Z,36.58
2023-01-28T13:46:56.990Z,41.72
2023-01-28T13:49:49.650Z,41.20
2023-01-28T13:52:53.529Z,40.35
2023-01-28T13:55:42.799Z,42.15
2023-01-28T13:58:36.315Z,42.78
2023-01-28T14:01:20.381Z,39.90
2023-01-28T14:04:00.254Z,38.88
2023-01-28T14:06:40.577Z,38.28
2023-01-28T14:09:29.728Z,36.58
2023-01-28T14:12:37.169Z,38.42
2023-01-28T14:15:45.949Z,43.38
2023-01-28T14:18:33.071Z,38.80
2023-01-28T14:21:05.059Z,39.72
2023-01-28T14:23:32.985Z,36.15
2023-01-28T14:26:15.931Z,41.72
2023-01-28T14:28:57.232Z,39.55
2023-01-28T14:31:37.199Z,38.78
2023-01-28T14:34:13.902Z,38.28
2023-01-28T14:36:44.938Z,41.60
2023-01-28T14:39:19.209Z,41.78
2023-01-28T14:41:50.636Z,39.45
2023-01-28T14:44:25.203Z,41.38
2023-01-28T14:47:06.461Z,40.80
2023-01-28T14:49:52.463Z,40.25
2023-01-28T14:52:40.604Z,38.38
2023-01-28T14:55:40.607Z,44.10
2023-01-28T14:58:28.282Z,41.75
2023-01-28T15:00:59.309Z,37.17
2023-01-28T15:03:29.191Z,41.10
2023-01-28T15:06:13.413Z,42.08
2023-01-28T15:08:41.416Z,38.97
2023-01-28T15:11:14.895Z,40.03
2023-01-28T15:13:47.583Z,38.85
2023-01-28T15:16:25.549Z,39.30
2023-01-28T15:18:53.664Z,37.45
2023-01-28T15:21:27.053Z,39.45
2023-01-28T15:23:58.424Z,43.10
2023-01-28T15:26:34.708Z,40.95
2023-01-28T15:29:02.933Z,40.33
2023-01-28T15:31:38.853Z,42.30
2023-01-28T15:34:18.897Z,34.70
2023-01-28T15:36:49.695Z,35.92
2023-01-28T15:39:23.356Z,36.75
2023-01-28T15:42:06.815Z,41.80
2023-01-28T15:44:42.362Z,39.97
2023-01-28T15:47:46.105Z,41.55
2023-01-28T15:50:26.012Z,41.90
2023-01-28T15:52:55.586Z,40.53
2023-01-28T15:55:39.942Z,42.63
2023-01-28T16:01:09.314Z,41.88
2023-01-28T16:03:40.022Z,43.92
2023-01-28T16:06:19.254Z,42.03
2023-01-28T16:08:50.989Z,33.20
2023-01-28T16:11:41.484Z,34.47
2023-01-28T16:14:25.519Z,29.55
2023-01-28T16:16:55.912Z,24.17
2023-01-28T16:19:38.781Z,19.63
2023-01-28T16:22:09.231Z,25.73
2023-01-28T16:24:37.147Z,30.95
2023-01-28T16:27:19.302Z,29.90
2023-01-28T16:29:46.963Z,27.83
2023-01-28T16:32:35.505Z,27.45
2023-01-28T16:35:03.753Z,19.83
2023-01-28T16:37:31.838Z,15.18
2023-01-28T16:40:01.568Z,16.15
2023-01-28T16:42:32.393Z,13.68
2023-01-28T16:45:00.107Z,13.68
2023-01-28T16:47:28.611Z,14.27
2023-01-28T16:49:56.590Z,12.93
2023-01-28T16:52:24.839Z,14.23
2023-01-28T16:54:52.560Z,10.82
2023-01-28T16:57:22.780Z,12.50
2023-01-28T16:59:50.582Z,14.27
2023-01-28T17:02:18.619Z,13.90
2023-01-28T17:04:46.521Z,14.73
2023-01-28T17:07:14.894Z,14.15
2023-01-28T17:09:42.629Z,14.48
2023-01-28T17:12:10.641Z,13.60
2023-01-28T17:14:39.638Z,16.27
2023-01-28T17:17:07.899Z,15.40
2023-01-28T17:19:35.750Z,15.32
2023-01-28T17:22:03.753Z,19.42
2023-01-28T17:24:31.609Z,15.63
2023-01-28T17:26:59.706Z,17.58
2023-01-28T17:29:28.146Z,18.55
2023-01-28T17:31:56.551Z,23.48
2023-01-28T17:34:24.349Z,22.15
2023-01-28T17:36:52.385Z,21.33
2023-01-28T17:39:20.047Z,27.15
2023-01-28T17:41:48.063Z,23.85
2023-01-28T17:44:15.857Z,26.08
2023-01-28T17:46:43.798Z,29.42
2023-01-28T17:49:12.344Z,28.48
2023-01-28T17:51:40.797Z,25.58
2023-01-28T17:54:08.569Z,32.75
2023-01-28T17:56:37.595Z,30.65
2023-01-28T17:59:06.717Z,31.85
2023-01-28T18:01:37.248Z,29.33
2023-01-28T18:04:05.438Z,32.20
2023-01-28T18:06:36.690Z,27.25
2023-01-28T18:09:05.540Z,26.20
2023-01-28T18:11:33.566Z,26.25
2023-01-28T18:14:01.431Z,26.90
2023-01-28T18:16:29.451Z,26.45
2023-01-28T18:18:57.149Z,28.00
2023-01-28T18:21:51.598Z,30.10
2023-01-28T18:24:21.968Z,25.00
2023-01-28T18:26:51.044Z,21.85
2023-01-28T18:29:20.948Z,21.80
2023-01-28T18:31:50.153Z,24.65
2023-01-28T18:34:18.846Z,25.27
2023-01-28T18:36:47.195Z,23.77
2023-01-28T18:39:15.836Z,20.63
2023-01-28T18:41:43.965Z,16.50
2023-01-28T18:44:14.219Z,14.27
2023-01-28T18:46:42.704Z,12.77
2023-01-28T18:49:10.492Z,11.77
2023-01-28T18:51:38.785Z,12.48
2023-01-28T18:54:11.127Z,10.80
2023-01-28T18:56:41.140Z,12.57
2023-01-28T18:59:12.800Z,9.90
2023-01-28T19:01:42.661Z,12.55
2023-01-28T19:04:11.362Z,9.93
2023-01-28T19:06:39.374Z,11.55
2023-01-28T19:09:08.558Z,11.43
2023-01-28T19:11:38.559Z,13.15
2023-01-28T19:14:06.794Z,13.85
2023-01-28T19:16:37.303Z,12.10
2023-01-28T19:19:05.710Z,15.00
2023-01-28T19:21:34.327Z,14.73
2023-01-28T19:24:06.706Z,12.07
2023-01-28T19:26:34.697Z,14.07
2023-01-28T19:29:02.669Z,11.73
2023-01-28T19:31:30.837Z,12.75
2023-01-28T19:34:00.177Z,14.63
2023-01-28T19:36:30.127Z,11.07
2023-01-28T19:38:59.874Z,9.82
2023-01-28T19:41:29.348Z,10.63
2023-01-28T19:43:57.745Z,13.13
2023-01-28T19:46:26.304Z,12.35
2023-01-28T19:48:54.511Z,13.88
2023-01-28T19:51:23.873Z,11.77
2023-01-28T19:53:53.554Z,13.38
2023-01-28T19:56:25.469Z,11.30
2023-01-28T19:58:54.652Z,11.95
2023-01-28T20:01:25.777Z,12.85
2023-01-28T20:03:57.473Z,14.25
2023-01-28T20:06:29.558Z,16.02
2023-01-28T20:09:02.502Z,14.77
2023-01-28T20:11:30.827Z,14.52
2023-01-28T20:13:59.851Z,13.65
2023-01-28T20:16:30.759Z,16.92
2023-01-28T20:19:04.540Z,14.43
2023-01-28T20:21:33.680Z,15.32
2023-01-28T20:24:02.799Z,15.85
2023-01-28T20:26:33.349Z,17.42
2023-01-28T20:29:03.530Z,16.95
2023-01-28T20:31:33.468Z,17.10
2023-01-28T20:34:01.880Z,16.23
2023-01-28T20:36:29.886Z,19.52
2023-01-28T20:38:57.647Z,18.13
2023-01-28T20:41:27.374Z,16.45
2023-01-28T20:43:55.997Z,16.25
2023-01-28T20:46:30.802Z,17.20
2023-01-28T20:49:00.580Z,13.55
2023-01-28T20:51:31.529Z,13.63
2023-01-28T20:54:00.809Z,14.70
2023-01-28T20:56:32.770Z,11.52
2023-01-28T20:59:06.007Z,11.65
2023-01-28T21:01:35.767Z,13.55
2023-01-28T21:04:04.974Z,13.68
2023-01-28T21:06:33.534Z,14.77
2023-01-28T21:09:01.487Z,13.98
2023-01-28T21:11:30.554Z,13.50
2023-01-28T21:13:58.684Z,15.35
2023-01-28T21:18:48.361Z,14.02
2023-01-28T21:21:21.762Z,14.75
2023-01-28T21:23:49.969Z,15.32
2023-01-28T21:26:18.314Z,18.92
2023-01-28T21:28:46.306Z,14.10
2023-01-28T21:31:22.676Z,15.88
2023-01-28T21:33:51.348Z,11.98
2023-01-28T21:36:19.913Z,15.63
2023-01-28T21:39:01.199Z,12.60
2023-01-28T21:41:29.340Z,14.93
2023-01-28T21:43:57.735Z,13.65
2023-01-28T21:46:33.984Z,18.70
2023-01-28T21:49:05.443Z,13.30
2023-01-28T21:51:40.277Z,16.10
2023-01-28T21:54:12.989Z,17.20
2023-01-28T21:56:43.835Z,17.15
2023-01-28T21:59:30.868Z,16.45
2023-01-28T22:02:01.413Z,16.95
2023-01-28T22:04:34.672Z,16.10
2023-01-28T22:07:04.647Z,13.88
2023-01-28T22:09:33.962Z,14.55
2023-01-28T22:12:09.390Z,15.95
2023-01-28T22:14:38.562Z,18.20
2023-01-28T22:17:09.194Z,15.05
2023-01-28T22:19:37.194Z,18.92
2023-01-28T22:22:05.543Z,19.02
2023-01-28T22:24:33.359Z,20.85
2023-01-28T22:27:01.509Z,21.13
2023-01-28T22:29:29.211Z,24.00
2023-01-28T22:31:57.169Z,19.25
2023-01-28T22:34:25.130Z,19.98
2023-01-28T22:36:53.215Z,15.85
2023-01-28T22:39:20.890Z,16.63
2023-01-28T22:41:48.902Z,15.25
2023-01-28T22:44:16.857Z,14.55
2023-01-28T22:46:44.914Z,15.65
2023-01-28T22:49:14.899Z,18.70
2023-01-28T22:51:43.080Z,16.02
2023-01-28T22:54:14.986Z,13.00
2023-01-28T22:56:43.281Z,15.70
2023-01-28T22:59:12.193Z,16.27
2023-01-28T23:01:40.522Z,17.88
2023-01-28T23:04:08.329Z,13.98
2023-01-28T23:06:37.289Z,13.90
2023-01-28T23:09:05.261Z,17.02
2023-01-28T23:11:33.409Z,13.25
2023-01-28T23:14:21.708Z,12.25
2023-01-28T23:17:08.667Z,12.60
2023-01-28T23:19:55.273Z,12.02
2023-01-28T23:22:46.387Z,15.13
2023-01-28T23:25:14.644Z,12.13
2023-01-28T23:27:43.130Z,16.17
2023-01-28T23:30:11.682Z,14.10
2023-01-28T23:32:43.022Z,14.30
2023-01-28T23:35:12.228Z,14.95
2023-01-28T23:37:40.319Z,14.07
2023-01-28T23:40:08.702Z,13.25
2023-01-28T23:42:36.942Z,13.75
2023-01-28T23:45:05.465Z,13.55
2023-01-28T23:47:33.797Z,13.55
2023-01-28T23:50:01.799Z,17.30
2023-01-28T23:52:29.780Z,13.35
2023-01-28T23:54:57.430Z,16.40
2023-01-28T23:57:25.344Z,13.98
2023-01-28T23:59:53.030Z,13.70
